Time;durP1;ratioP1;P1;durP2;ratioP2;P2;SDS_P1;SDS_P2;PMS_P1;PMS_P2;Temp;Humidity;BMP_temperature;BMP_pressure;BME280_temperature;BME280_humidity;BME280_pressure;Samples;Min_cycle;Max_cycle;Signal;HPM_P1;HPM_P2
2021/01/14 00:00:25;;;;;;;10.25;3.10;;;17.90;63.70;;;;;;5095289;28;20032;-56
2021/01/14 00:02:52;;;;;;;7.78;3.00;;;17.90;63.70;;;;;;5094973;28;20077;-56
2021/01/14 00:05:19;;;;;;;7.65;3.35;;;17.90;63.70;;;;;;5095189;28;20081;-57
2021/01/14 00:07:46;;;;;;;7.65;3.08;;;17.90;63.90;;;;;;5095702;28;20028;-56
2021/01/14 00:10:14;;;;;;;9.18;3.10;;;17.90;63.60;;;;;;5094928;28;20031;-56
2021/01/14 00:12:41;;;;;;;7.95;3.08;;;17.90;63.70;;;;;;5094441;28;20036;-56
2021/01/14 00:15:09;;;;;;;7.55;3.20;;;17.90;63.60;;;;;;5094667;28;20031;-56
2021/01/14 00:17:35;;;;;;;6.53;2.70;;;17.90;63.60;;;;;;5094989;28;20024;-56
2021/01/14 00:20:03;;;;;;;7.30;2.60;;;17.90;63.60;;;;;;5094330;28;20526;-56
2021/01/14 00:22:30;;;;;;;8.30;3.25;;;17.90;63.60;;;;;;5094654;28;20462;-56
2021/01/14 00:24:56;;;;;;;10.20;3.42;;;17.90;63.60;;;;;;5094800;28;20020;-56
2021/01/14 00:27:23;;;;;;;5.30;2.50;;;17.90;63.60;;;;;;5094497;28;20169;-56
2021/01/14 00:29:49;;;;;;;6.78;2.35;;;17.90;63.60;;;;;;5094696;28;20056;-56
2021/01/14 00:32:15;;;;;;;7.13;3.28;;;17.90;63.60;;;;;;5094441;28;20031;-56
2021/01/14 00:34:42;;;;;;;5.03;2.65;;;17.80;63.60;;;;;;5094568;28;20024;-56
2021/01/14 00:39:56;;;;;;;9.45;3.17;;;17.80;63.60;;;;;;5094125;28;20059;-56
2021/01/14 00:42:22;;;;;;;8.18;2.90;;;17.80;63.60;;;;;;5093919;28;20158;-56
2021/01/14 00:44:49;;;;;;;6.28;2.60;;;17.80;64.10;;;;;;5094174;28;20017;-56
2021/01/14 00:47:15;;;;;;;4.88;2.40;;;17.80;63.50;;;;;;5094707;28;20044;-56
2021/01/14 00:49:42;;;;;;;8.52;3.08;;;17.80;63.50;;;;;;5094074;28;20039;-56
2021/01/14 00:52:12;;;;;;;6.20;2.78;;;17.80;63.50;;;;;;5093789;28;20024;-56
2021/01/14 00:54:41;;;;;;;6.15;3.10;;;17.80;63.50;;;;;;5094029;28;20116;-56
2021/01/14 00:57:09;;;;;;;6.18;2.72;;;17.70;63.40;;;;;;5093790;28;20059;-56
2021/01/14 00:59:36;;;;;;;6.65;2.80;;;17.70;63.40;;;;;;5094297;28;20081;-56
2021/01/14 01:02:05;;;;;;;4.72;2.38;;;17.70;63.40;;;;;;5093556;28;20107;-56
2021/01/14 01:04:31;;;;;;;13.27;8.60;;;17.70;63.50;;;;;;5094356;28;20028;-55
2021/01/14 01:06:58;;;;;;;81.28;64.70;;;17.70;63.60;;;;;;5094098;28;20032;-55
2021/01/14 01:09:25;;;;;;;45.20;36.05;;;17.70;63.70;;;;;;5094313;28;20020;-57
2021/01/14 01:11:51;;;;;;;38.40;28.63;;;17.70;63.70;;;;;;5094589;28;20087;-57
2021/01/14 01:14:18;;;;;;;28.65;19.88;;;17.70;63.80;;;;;;5093965;28;20074;-56
2021/01/14 01:16:44;;;;;;;22.90;16.88;;;17.70;63.80;;;;;;5094040;28;20132;-56
2021/01/14 01:19:11;;;;;;;22.48;16.08;;;17.70;63.90;;;;;;5093719;28;20032;-56
2021/01/14 01:21:42;;;;;;;24.52;14.45;;;17.70;63.80;;;;;;5093508;28;20070;-55
2021/01/14 01:24:10;;;;;;;21.70;11.77;;;17.70;63.80;;;;;;5094528;28;20024;-56
2021/01/14 01:26:36;;;;;;;27.73;20.98;;;17.70;63.80;;;;;;5091020;28;20099;-55
2021/01/14 01:29:03;;;;;;;21.73;14.43;;;17.70;63.90;;;;;;5084332;28;20024;-56
2021/01/14 01:31:30;;;;;;;17.30;11.90;;;17.70;63.90;;;;;;5090763;28;20393;-56
2021/01/14 01:33:56;;;;;;;17.85;10.05;;;17.70;63.90;;;;;;5093660;28;20513;-56
2021/01/14 01:36:23;;;;;;;13.75;8.93;;;17.70;63.90;;;;;;5094114;28;20109;-56
2021/01/14 01:38:50;;;;;;;17.17;8.40;;;17.80;64.00;;;;;;5093787;28;20067;-56
2021/01/14 01:41:17;;;;;;;14.88;7.75;;;17.80;64.10;;;;;;5092999;28;20052;-56
2021/01/14 01:43:43;;;;;;;17.38;7.32;;;17.90;64.10;;;;;;5093593;28;20391;-56
2021/01/14 01:46:22;;;;;;;9.32;7.03;;;17.90;64.20;;;;;;5079636;28;20029;-55
2021/01/14 01:48:49;;;;;;;18.02;6.85;;;18.00;64.20;;;;;;5073405;28;20053;-56
2021/01/14 01:51:15;;;;;;;11.70;6.35;;;18.00;64.20;;;;;;5087897;28;20032;-57
2021/01/14 01:53:42;;;;;;;14.48;6.05;;;18.10;64.20;;;;;;5097759;28;20024;-56
2021/01/14 01:56:08;;;;;;;10.88;5.70;;;18.20;64.10;;;;;;5097399;28;20469;-58
2021/01/14 01:58:39;;;;;;;9.38;5.10;;;18.40;64.10;;;;;;5097626;28;20026;-56
2021/01/14 02:01:08;;;;;;;10.02;5.35;;;18.50;64.00;;;;;;5097387;28;20035;-55
2021/01/14 02:03:35;;;;;;;10.70;4.70;;;18.70;63.90;;;;;;5097748;28;20060;-55
2021/01/14 02:06:02;;;;;;;10.20;5.13;;;18.90;63.70;;;;;;5097207;28;20063;-55
2021/01/14 02:08:41;;;;;;;7.82;4.53;;;19.00;63.40;;;;;;5097511;28;20048;-55
2021/01/14 02:11:43;;;;;;;10.45;5.07;;;19.30;63.20;;;;;;5078928;28;20050;-55
2021/01/14 02:14:23;;;;;;;7.75;4.50;;;19.60;63.00;;;;;;5080127;28;20036;-56
2021/01/14 02:16:51;;;;;;;13.32;5.88;;;19.80;62.40;;;;;;5097351;28;20028;-55
2021/01/14 02:19:47;;;;;;;7.97;4.35;;;20.00;62.00;;;;;;5096659;28;20036;-55
2021/01/14 02:22:25;;;;;;;9.10;4.57;;;20.20;61.70;;;;;;5087203;28;20058;-55
2021/01/14 02:25:19;;;;;;;12.55;4.20;;;20.50;61.20;;;;;;5097185;28;20070;-55
2021/01/14 02:27:48;;;;;;;7.72;4.20;;;20.70;60.70;;;;;;5097485;28;20103;-56
2021/01/14 02:30:15;;;;;;;8.15;4.53;;;20.90;60.40;;;;;;5096370;28;20485;-55
2021/01/14 02:32:44;;;;;;;10.18;4.45;;;21.10;60.00;;;;;;5097078;28;20404;-55
2021/01/14 02:35:11;;;;;;;6.90;3.85;;;21.30;59.70;;;;;;5097241;28;20068;-55
2021/01/14 02:37:38;;;;;;;7.28;4.18;;;21.50;59.50;;;;;;5096773;28;20032;-55
2021/01/14 02:40:05;;;;;;;8.98;4.07;;;21.70;59.00;;;;;;5096523;28;20079;-55
2021/01/14 02:42:32;;;;;;;6.78;3.53;;;21.90;58.60;;;;;;5097698;28;20046;-56
2021/01/14 02:44:58;;;;;;;9.25;3.58;;;22.20;58.20;;;;;;5096965;28;20035;-55
2021/01/14 02:47:26;;;;;;;6.47;3.40;;;22.50;57.90;;;;;;5096664;28;20024;-55
2021/01/14 02:50:01;;;;;;;8.52;3.42;;;22.70;57.50;;;;;;5096713;28;20048;-55
2021/01/14 02:52:29;;;;;;;7.15;3.67;;;23.00;57.00;;;;;;5076779;28;20032;-56
2021/01/14 02:54:58;;;;;;;9.05;3.45;;;23.20;56.40;;;;;;5076433;28;20031;-56
2021/01/14 02:57:29;;;;;;;6.30;3.50;;;23.50;56.00;;;;;;5076527;28;20028;-56
2021/01/14 02:59:55;;;;;;;6.85;3.20;;;23.70;55.40;;;;;;5090373;28;20039;-56
2021/01/14 03:02:22;;;;;;;11.85;3.47;;;23.90;54.90;;;;;;5095517;28;20377;-56
2021/01/14 03:04:49;;;;;;;6.78;3.03;;;24.20;54.60;;;;;;5096235;28;20024;-56
2021/01/14 03:07:15;;;;;;;6.03;3.15;;;24.40;54.10;;;;;;5096262;28;20031;-58
2021/01/14 03:09:42;;;;;;;7.03;3.17;;;24.50;53.80;;;;;;5096262;28;20024;-57
2021/01/14 03:12:08;;;;;;;10.88;2.72;;;24.70;53.30;;;;;;5095947;28;20039;-57
2021/01/14 03:14:35;;;;;;;9.02;3.33;;;24.80;52.90;;;;;;5095564;28;20389;-57
2021/01/14 03:17:01;;;;;;;11.57;3.60;;;25.00;53.30;;;;;;5096047;28;20077;-57
2021/01/14 03:19:28;;;;;;;8.43;3.50;;;25.10;52.20;;;;;;5095831;28;20027;-56
2021/01/14 03:22:01;;;;;;;10.68;3.70;;;25.30;52.20;;;;;;5095541;28;20425;-59
2021/01/14 03:24:29;;;;;;;6.20;3.00;;;25.40;51.90;;;;;;5095917;28;20028;-56
2021/01/14 03:26:55;;;;;;;7.15;3.58;;;25.50;51.90;;;;;;5095729;28;20051;-56
2021/01/14 03:29:22;;;;;;;8.35;3.17;;;25.50;51.70;;;;;;5096253;28;20112;-57
2021/01/14 03:31:48;;;;;;;6.90;3.10;;;25.60;51.40;;;;;;5095727;28;20035;-56
2021/01/14 03:34:15;;;;;;;6.38;3.28;;;25.70;51.30;;;;;;5095614;28;20351;-57
2021/01/14 03:36:56;;;;;;;12.02;3.60;;;25.80;51.20;;;;;;5095214;28;20020;-57
2021/01/14 03:39:25;;;;;;;6.93;3.55;;;25.80;50.90;;;;;;5095477;28;20020;-57
2021/01/14 03:41:52;;;;;;;9.35;3.42;;;25.90;50.70;;;;;;5095627;28;20030;-57
2021/01/14 03:44:19;;;;;;;9.60;3.10;;;26.00;50.60;;;;;;5095588;28;20030;-57
2021/01/14 03:46:50;;;;;;;7.28;3.13;;;26.10;50.40;;;;;;5095616;28;20046;-56
2021/01/14 03:49:17;;;;;;;8.45;3.20;;;26.20;50.30;;;;;;5095581;28;20553;-56
2021/01/14 03:51:48;;;;;;;8.15;2.85;;;26.30;50.20;;;;;;5095774;28;20054;-57
2021/01/14 03:54:14;;;;;;;6.88;3.13;;;26.40;50.00;;;;;;5096106;28;20020;-57
2021/01/14 03:56:42;;;;;;;8.43;3.00;;;26.50;49.90;;;;;;5095117;28;20031;-57
2021/01/14 03:59:08;;;;;;;9.65;3.10;;;26.60;49.70;;;;;;5095228;28;20028;-57
2021/01/14 04:01:35;;;;;;;9.82;3.42;;;26.70;49.50;;;;;;5095206;28;20032;-57
2021/01/14 04:04:02;;;;;;;10.77;3.30;;;26.90;49.40;;;;;;5095228;28;20034;-58
2021/01/14 04:06:35;;;;;;;6.93;3.22;;;26.90;49.30;;;;;;5095164;28;20020;-57
2021/01/14 04:09:03;;;;;;;9.07;3.30;;;27.10;49.10;;;;;;5094741;28;20028;-58
2021/01/14 04:11:30;;;;;;;5.43;3.25;;;27.10;48.80;;;;;;5094737;28;20024;-56
2021/01/14 04:13:57;;;;;;;6.85;3.75;;;27.20;48.80;;;;;;5094673;28;20032;-56
2021/01/14 04:16:24;;;;;;;6.82;4.07;;;27.30;48.60;;;;;;5094266;28;20012;-58
2021/01/14 04:18:50;;;;;;;8.50;3.90;;;27.40;48.60;;;;;;5094924;28;20093;-57
2021/01/14 04:21:17;;;;;;;8.93;4.07;;;27.50;48.50;;;;;;5094565;28;20470;-58
2021/01/14 04:23:45;;;;;;;8.88;4.78;;;27.50;48.30;;;;;;5094832;28;20039;-58
2021/01/14 04:26:13;;;;;;;9.73;4.30;;;27.50;48.20;;;;;;5094829;28;20024;-56
2021/01/14 04:28:40;;;;;;;12.73;4.45;;;27.60;48.20;;;;;;5094661;28;20062;-55
2021/01/14 04:31:07;;;;;;;11.55;4.55;;;27.70;48.00;;;;;;5094886;28;20032;-56
2021/01/14 04:33:33;;;;;;;8.18;4.80;;;27.70;47.90;;;;;;5094165;28;20032;-56
2021/01/14 04:36:01;;;;;;;10.13;5.00;;;27.70;47.80;;;;;;5094995;28;20028;-56
2021/01/14 04:38:28;;;;;;;10.65;4.95;;;27.80;47.80;;;;;;5094600;28;20053;-56
2021/01/14 04:41:05;;;;;;;12.35;5.18;;;27.80;47.70;;;;;;5094046;28;20374;-55
2021/01/14 04:43:33;;;;;;;8.77;4.68;;;27.90;47.70;;;;;;5094142;28;20047;-54
2021/01/14 04:46:08;;;;;;;11.00;5.70;;;27.90;47.60;;;;;;5094334;28;20027;-57
2021/01/14 04:48:35;;;;;;;8.02;4.68;;;27.90;47.40;;;;;;5094312;28;20035;-55
2021/01/14 04:51:06;;;;;;;7.70;4.70;;;27.90;47.40;;;;;;5094015;28;20023;-56
2021/01/14 04:53:36;;;;;;;8.65;4.65;;;28.00;47.40;;;;;;5094655;28;20020;-56
2021/01/14 04:56:07;;;;;;;8.32;4.60;;;28.00;47.30;;;;;;5094271;28;20020;-56
2021/01/14 04:58:38;;;;;;;9.07;4.68;;;28.00;47.20;;;;;;5094532;28;20028;-56
2021/01/14 05:01:25;;;;;;;9.63;4.28;;;28.00;47.20;;;;;;5093824;28;20036;-57
2021/01/14 05:03:53;;;;;;;6.88;4.40;;;28.10;47.40;;;;;;5094954;28;20035;-56
2021/01/14 05:06:21;;;;;;;10.68;4.72;;;28.00;47.10;;;;;;5094204;28;20411;-55
2021/01/14 05:08:50;;;;;;;6.93;4.10;;;28.10;47.10;;;;;;5094429;28;20077;-57
2021/01/14 05:11:18;;;;;;;8.80;4.43;;;28.10;47.10;;;;;;5093584;28;20031;-56
2021/01/14 05:13:46;;;;;;;6.72;4.10;;;28.10;47.00;;;;;;5093906;28;20077;-56
2021/01/14 05:16:13;;;;;;;8.15;4.10;;;28.10;47.00;;;;;;5093766;28;20066;-56
2021/01/14 05:18:43;;;;;;;6.93;3.88;;;28.10;47.00;;;;;;5093379;28;20031;-54
2021/01/14 05:21:09;;;;;;;7.95;4.18;;;28.10;47.00;;;;;;5093749;28;20536;-54
2021/01/14 05:23:36;;;;;;;7.60;4.07;;;28.00;47.00;;;;;;5093902;28;20016;-55
2021/01/14 05:26:04;;;;;;;6.60;3.55;;;28.00;47.00;;;;;;5093858;28;20388;-55
2021/01/14 05:28:31;;;;;;;7.38;3.60;;;28.00;46.90;;;;;;5094174;28;20111;-55
2021/01/14 05:31:15;;;;;;;5.25;3.40;;;27.90;47.00;;;;;;5093850;28;20032;-55
2021/01/14 05:33:41;;;;;;;9.13;3.95;;;27.90;47.00;;;;;;5073531;28;20067;-58
2021/01/14 05:36:08;;;;;;;6.65;3.33;;;27.80;47.00;;;;;;5082561;28;20039;-57
2021/01/14 05:38:35;;;;;;;8.52;3.70;;;27.80;47.10;;;;;;5093822;28;20111;-56
2021/01/14 05:41:20;;;;;;;12.73;3.63;;;27.70;47.00;;;;;;5093736;28;20056;-56
2021/01/14 05:44:02;;;;;;;8.65;3.30;;;27.70;46.90;;;;;;5094327;28;20020;-56
2021/01/14 05:46:32;;;;;;;7.00;3.65;;;27.60;46.90;;;;;;5093798;28;20531;-56
2021/01/14 05:49:00;;;;;;;7.88;3.30;;;27.60;47.10;;;;;;5093647;28;20028;-55
2021/01/14 05:51:31;;;;;;;5.03;3.08;;;27.40;47.10;;;;;;5093729;28;20077;-55
2021/01/14 05:54:05;;;;;;;6.25;3.03;;;27.40;47.20;;;;;;5094224;28;20397;-56
2021/01/14 05:56:50;;;;;;;6.32;2.78;;;27.30;47.20;;;;;;5093832;28;20110;-56
2021/01/14 05:59:19;;;;;;;10.48;2.95;;;27.20;47.30;;;;;;5093332;28;20024;-56
2021/01/14 06:01:57;;;;;;;7.00;2.97;;;27.10;47.40;;;;;;5092972;28;20036;-56
2021/01/14 06:04:28;;;;;;;11.30;3.10;;;27.00;47.50;;;;;;5093427;28;20355;-56
2021/01/14 06:07:04;;;;;;;6.70;3.13;;;27.00;47.50;;;;;;5093531;28;20487;-56
2021/01/14 06:09:40;;;;;;;6.43;2.50;;;26.90;47.60;;;;;;5093112;28;20393;-57
2021/01/14 06:12:09;;;;;;;5.45;2.90;;;26.80;47.70;;;;;;5094337;28;20517;-57
2021/01/14 06:14:36;;;;;;;7.63;2.67;;;26.70;47.80;;;;;;5093337;28;20111;-56
2021/01/14 06:17:06;;;;;;;4.28;2.50;;;26.70;47.90;;;;;;5093216;28;20373;-56
2021/01/14 06:19:34;;;;;;;4.93;2.67;;;26.50;47.80;;;;;;5093363;28;20051;-56
2021/01/14 06:22:01;;;;;;;5.05;2.45;;;26.50;48.00;;;;;;5075064;28;20373;-57
2021/01/14 06:24:39;;;;;;;5.82;2.80;;;26.40;48.10;;;;;;5093259;28;20088;-56
2021/01/14 06:27:06;;;;;;;5.72;2.63;;;26.30;48.10;;;;;;5092999;28;20031;-56
2021/01/14 06:29:38;;;;;;;7.65;2.80;;;26.30;48.30;;;;;;5093317;28;20069;-56
2021/01/14 06:32:18;;;;;;;4.20;2.03;;;26.20;48.30;;;;;;5093520;28;20518;-57
2021/01/14 06:34:46;;;;;;;5.20;2.50;;;26.10;48.40;;;;;;5092906;28;20465;-58
2021/01/14 06:37:26;;;;;;;4.70;2.47;;;26.00;48.50;;;;;;5094513;28;20020;-57
2021/01/14 06:39:55;;;;;;;3.50;2.08;;;25.90;48.50;;;;;;5096365;28;20491;-56
2021/01/14 06:42:29;;;;;;;8.55;2.25;;;25.90;48.70;;;;;;5097114;28;20093;-56
2021/01/14 06:45:06;;;;;;;4.38;2.33;;;25.80;48.70;;;;;;5097646;28;20147;-58
2021/01/14 06:47:34;;;;;;;9.68;2.65;;;25.70;48.80;;;;;;5096780;28;20052;-56
2021/01/14 06:50:18;;;;;;;7.63;2.30;;;25.70;48.90;;;;;;5096160;28;20036;-56
2021/01/14 06:52:47;;;;;;;7.25;2.60;;;25.60;49.00;;;;;;5096244;28;20078;-55
2021/01/14 06:55:24;;;;;;;7.82;2.38;;;25.50;49.10;;;;;;5096130;28;20106;-56
2021/01/14 06:58:10;;;;;;;6.55;2.40;;;25.50;49.20;;;;;;5095879;28;20028;-55
2021/01/14 07:00:39;;;;;;;6.63;2.58;;;25.30;49.20;;;;;;5096436;28;20082;-56
2021/01/14 07:05:55;;;;;;;7.40;2.50;;;25.20;49.40;;;;;;5096440;28;20032;-55
2021/01/14 07:08:37;;;;;;;7.07;2.08;;;25.10;49.50;;;;;;5096376;28;20024;-54
2021/01/14 07:11:11;;;;;;;6.50;2.15;;;25.10;49.70;;;;;;5097057;28;20036;-56
2021/01/14 07:13:46;;;;;;;6.55;2.17;;;25.00;49.70;;;;;;5096181;28;20036;-56
2021/01/14 07:16:23;;;;;;;7.60;2.30;;;24.90;49.80;;;;;;5095883;28;20535;-55
2021/01/14 07:18:51;;;;;;;6.57;2.05;;;24.80;49.90;;;;;;5096025;28;20023;-55
2021/01/14 07:21:53;;;;;;;8.82;2.15;;;24.80;50.10;;;;;;5095801;28;20024;-56
2021/01/14 07:24:28;;;;;;;3.88;1.95;;;24.70;50.10;;;;;;5013920;28;20476;-55
2021/01/14 07:27:02;;;;;;;8.40;2.03;;;24.60;50.20;;;;;;5084801;28;20067;-54
